createdAt,value
2023-05-17T00:02:37.411Z,28.90
2023-05-17T00:05:39.509Z,28.80
2023-05-17T00:08:42.294Z,28.90
2023-05-17T00:11:44.294Z,29.00
2023-05-17T00:14:46.664Z,28.90
2023-05-17T00:17:48.746Z,28.90
2023-05-17T00:20:51.315Z,28.90
2023-05-17T00:23:53.382Z,29.00
2023-05-17T00:26:55.649Z,28.90
2023-05-17T00:29:57.762Z,28.90
2023-05-17T00:33:00.074Z,28.80
2023-05-17T00:36:02.120Z,28.80
2023-05-17T00:39:04.389Z,28.80
2023-05-17T00:42:06.520Z,28.80
2023-05-17T00:45:09.345Z,28.60
2023-05-17T00:48:12.064Z,28.70
2023-05-17T00:51:16.274Z,28.60
2023-05-17T00:54:19.041Z,28.50
2023-05-17T00:57:21.481Z,28.60
2023-05-17T01:00:23.792Z,28.30
2023-05-17T01:03:26.299Z,28.50
2023-05-17T01:06:28.413Z,28.80
2023-05-17T01:09:31.161Z,28.70
2023-05-17T01:12:40.559Z,28.50
2023-05-17T01:15:49.575Z,28.70
2023-05-17T01:19:20.007Z,28.20
2023-05-17T01:22:38.906Z,27.80
2023-05-17T01:25:58.014Z,27.90
2023-05-17T01:29:02.298Z,28.10
2023-05-17T01:32:06.328Z,28.30
2023-05-17T01:35:11.244Z,28.40
2023-05-17T01:38:13.332Z,28.30
2023-05-17T01:41:36.636Z,28.00
2023-05-17T01:44:48.384Z,27.40
2023-05-17T01:48:00.564Z,27.80
2023-05-17T01:51:03.939Z,28.70
2023-05-17T01:54:12.157Z,28.10
2023-05-17T01:57:16.479Z,27.40
2023-05-17T02:00:22.332Z,28.30
2023-05-17T02:03:24.950Z,27.70
2023-05-17T02:06:27.411Z,27.90
2023-05-17T02:09:29.628Z,27.90
2023-05-17T02:12:32.131Z,27.80
2023-05-17T02:15:34.245Z,28.30
2023-05-17T02:18:37.806Z,27.80
2023-05-17T02:21:40.011Z,27.80
2023-05-17T02:24:42.290Z,28.20
2023-05-17T02:27:44.361Z,27.20
2023-05-17T02:30:46.594Z,27.10
2023-05-17T02:33:48.579Z,26.80
2023-05-17T02:36:50.923Z,26.90
2023-05-17T02:39:52.903Z,27.00
2023-05-17T02:42:55.175Z,26.70
2023-05-17T02:45:57.137Z,26.70
2023-05-17T02:48:59.468Z,27.10
2023-05-17T02:52:02.304Z,26.80
2023-05-17T02:55:04.866Z,26.40
2023-05-17T02:58:06.957Z,26.90
2023-05-17T03:01:10.310Z,26.00
2023-05-17T03:04:12.579Z,25.90
2023-05-17T03:07:15.149Z,25.70
2023-05-17T03:10:17.205Z,25.70
2023-05-17T03:13:19.377Z,25.20
2023-05-17T03:16:21.670Z,25.20
2023-05-17T03:19:24.158Z,25.40
2023-05-17T03:22:26.459Z,25.30
2023-05-17T03:25:29.227Z,25.50
2023-05-17T03:28:31.458Z,25.40
2023-05-17T03:31:33.735Z,25.60
2023-05-17T03:34:35.725Z,25.60
2023-05-17T03:37:38.050Z,26.10
2023-05-17T03:40:40.308Z,25.70
2023-05-17T03:43:42.579Z,25.50
2023-05-17T03:46:44.720Z,25.30
2023-05-17T03:49:47.004Z,25.40
2023-05-17T03:52:49.078Z,25.30
2023-05-17T03:55:51.487Z,25.30
2023-05-17T03:58:53.501Z,25.20
2023-05-17T04:01:55.795Z,25.30
2023-05-17T04:04:57.895Z,24.90
2023-05-17T04:08:00.494Z,25.30
2023-05-17T04:11:10.639Z,24.90
2023-05-17T04:14:13.052Z,25.00
2023-05-17T04:17:16.797Z,25.00
2023-05-17T04:20:19.549Z,25.20
2023-05-17T04:23:21.712Z,25.10
2023-05-17T04:26:25.128Z,25.60
2023-05-17T04:29:28.834Z,24.90
2023-05-17T04:32:31.172Z,25.00
2023-05-17T04:35:33.188Z,24.80
2023-05-17T04:38:35.576Z,24.80
2023-05-17T04:41:37.812Z,24.70
2023-05-17T04:44:40.081Z,25.30
2023-05-17T04:47:42.246Z,24.90
2023-05-17T04:50:47.143Z,24.50
2023-05-17T04:53:49.113Z,24.20
2023-05-17T04:56:51.816Z,24.00
2023-05-17T04:59:53.991Z,23.80
2023-05-17T05:02:56.307Z,23.60
2023-05-17T05:05:58.677Z,22.90
2023-05-17T05:09:01.618Z,22.70
2023-05-17T05:12:03.824Z,22.40
2023-05-17T05:15:06.640Z,21.90
2023-05-17T05:18:08.961Z,22.00
2023-05-17T05:21:11.271Z,21.70
2023-05-17T05:24:14.156Z,22.30
2023-05-17T05:27:16.652Z,21.90
2023-05-17T05:30:22.317Z,21.70
2023-05-17T05:33:25.084Z,21.80
2023-05-17T05:36:27.183Z,21.80
2023-05-17T05:39:29.557Z,22.00
2023-05-17T05:42:31.595Z,22.40
2023-05-17T05:45:34.072Z,22.70
2023-05-17T05:48:39.485Z,23.30
2023-05-17T05:51:41.877Z,23.70
2023-05-17T05:54:44.357Z,23.40
2023-05-17T05:57:46.586Z,23.70
2023-05-17T06:00:48.834Z,23.30
2023-05-17T06:03:51.364Z,23.70
2023-05-17T06:06:54.930Z,23.20
2023-05-17T06:09:57.383Z,24.20
2023-05-17T06:12:59.466Z,23.50
2023-05-17T06:16:01.943Z,23.10
2023-05-17T06:19:04.266Z,23.20
2023-05-17T06:22:06.645Z,23.60
2023-05-17T06:25:09.065Z,23.20
2023-05-17T06:28:11.382Z,23.40
2023-05-17T06:31:13.537Z,23.10
2023-05-17T06:34:15.886Z,23.60
2023-05-17T06:37:18.031Z,24.90
2023-05-17T06:40:20.379Z,23.90
2023-05-17T06:43:22.571Z,23.80
2023-05-17T06:46:24.844Z,23.20
2023-05-17T06:49:26.978Z,23.20
2023-05-17T06:52:29.866Z,23.50
2023-05-17T06:55:32.089Z,23.40
2023-05-17T06:58:35.605Z,22.20
2023-05-17T07:01:37.693Z,22.20
2023-05-17T07:04:40.387Z,22.30
2023-05-17T07:07:42.535Z,22.70
2023-05-17T07:10:44.875Z,23.70
2023-05-17T07:13:46.997Z,23.80
2023-05-17T07:16:49.320Z,22.80
2023-05-17T07:19:52.263Z,22.90
2023-05-17T07:22:54.576Z,22.30
2023-05-17T07:25:56.704Z,23.40
2023-05-17T07:28:59.207Z,22.20
2023-05-17T07:32:01.197Z,22.20
2023-05-17T07:35:03.674Z,22.40
2023-05-17T07:38:05.788Z,22.40
2023-05-17T07:41:12.358Z,22.70
2023-05-17T07:44:14.545Z,22.40
2023-05-17T07:47:17.051Z,22.30
2023-05-17T07:50:19.298Z,22.30
2023-05-17T07:53:21.579Z,22.20
2023-05-17T07:56:23.656Z,22.30
2023-05-17T07:59:27.211Z,21.50
2023-05-17T08:02:29.269Z,21.60
2023-05-17T08:05:31.832Z,21.70
2023-05-17T08:08:33.949Z,22.10
2023-05-17T08:11:36.280Z,22.50
2023-05-17T08:14:40.194Z,21.80
2023-05-17T08:17:44.391Z,21.30
2023-05-17T08:20:46.676Z,22.10
2023-05-17T08:23:50.026Z,22.50
2023-05-17T08:26:52.773Z,23.40
2023-05-17T08:29:59.779Z,23.40
2023-05-17T08:33:01.861Z,23.60
2023-05-17T08:36:08.131Z,23.00
2023-05-17T08:39:13.557Z,23.90
2023-05-17T08:42:21.423Z,23.50
2023-05-17T08:45:23.823Z,23.80
2023-05-17T08:48:27.466Z,23.10
2023-05-17T08:51:29.788Z,22.70
2023-05-17T08:54:32.031Z,22.80
2023-05-17T08:57:38.722Z,23.60
2023-05-17T09:00:41.247Z,24.00
2023-05-17T09:03:51.352Z,24.20
2023-05-17T09:06:53.669Z,24.40
2023-05-17T09:09:55.709Z,25.00
2023-05-17T09:12:58.142Z,25.60
2023-05-17T09:16:00.135Z,25.60
2023-05-17T09:19:04.367Z,25.10
2023-05-17T09:22:07.846Z,26.50
2023-05-17T09:25:10.218Z,26.10
2023-05-17T09:28:12.806Z,25.90
2023-05-17T09:31:17.128Z,26.00
2023-05-17T09:34:20.792Z,26.00
2023-05-17T09:37:23.743Z,25.80
2023-05-17T09:40:26.137Z,25.40
2023-05-17T09:43:30.096Z,26.30
2023-05-17T09:46:35.442Z,25.30
2023-05-17T09:49:37.925Z,24.70
2023-05-17T09:52:40.196Z,24.60
2023-05-17T09:55:42.449Z,24.80
2023-05-17T09:58:44.775Z,25.10
2023-05-17T10:01:50.272Z,24.50
2023-05-17T10:04:54.001Z,25.00
2023-05-17T10:07:56.610Z,25.00
2023-05-17T10:11:03.418Z,24.60
2023-05-17T10:14:15.593Z,25.40
2023-05-17T10:17:19.436Z,25.50
2023-05-17T10:20:21.984Z,24.80
2023-05-17T10:23:26.482Z,24.20
2023-05-17T10:26:30.115Z,23.10
2023-05-17T10:29:33.656Z,23.60
2023-05-17T10:32:36.671Z,23.70
2023-05-17T10:35:39.444Z,24.50
2023-05-17T10:38:43.666Z,25.50
2023-05-17T10:41:49.211Z,25.00
2023-05-17T10:44:54.633Z,24.70
2023-05-17T10:47:58.910Z,24.90
2023-05-17T10:51:07.417Z,24.40
2023-05-17T10:54:18.361Z,24.00
2023-05-17T11:00:42.173Z,24.50
2023-05-17T11:03:44.413Z,24.60
2023-05-17T11:06:46.581Z,24.80
2023-05-17T11:10:04.957Z,24.40
2023-05-17T11:13:25.294Z,25.30
2023-05-17T11:16:37.748Z,24.70
2023-05-17T11:19:39.919Z,24.00
2023-05-17T11:22:56.148Z,23.40
2023-05-17T11:26:16.420Z,22.80
2023-05-17T11:29:18.905Z,22.10
2023-05-17T11:32:31.466Z,22.60
2023-05-17T11:35:38.861Z,21.20
2023-05-17T11:38:41.129Z,22.00
2023-05-17T11:41:51.933Z,23.00
2023-05-17T11:44:58.168Z,24.60
2023-05-17T11:48:00.357Z,23.90
2023-05-17T11:51:03.749Z,24.30
2023-05-17T11:54:07.220Z,24.20
2023-05-17T11:57:11.200Z,24.90
2023-05-17T12:00:14.105Z,25.00
2023-05-17T12:03:28.929Z,24.80
2023-05-17T12:06:32.789Z,24.90
2023-05-17T12:09:35.697Z,24.40
2023-05-17T12:12:37.724Z,24.20
2023-05-17T12:15:40.631Z,23.10
2023-05-17T12:18:49.703Z,23.20
2023-05-17T12:21:52.185Z,22.70
2023-05-17T12:24:54.208Z,23.30
2023-05-17T12:28:22.515Z,23.10
2023-05-17T12:31:31.263Z,21.90
2023-05-17T12:34:34.277Z,21.60
2023-05-17T12:37:36.607Z,21.70
2023-05-17T12:40:42.610Z,21.20
2023-05-17T12:43:46.391Z,21.70
2023-05-17T12:46:54.077Z,21.30
2023-05-17T12:49:56.706Z,21.40
2023-05-17T12:52:59.075Z,22.20
2023-05-17T12:56:01.101Z,22.80
2023-05-17T12:59:17.450Z,21.80
2023-05-17T13:02:20.612Z,21.60
2023-05-17T13:05:23.239Z,21.40
2023-05-17T13:08:25.611Z,21.20
2023-05-17T13:11:28.256Z,21.10
2023-05-17T13:14:34.831Z,22.00
2023-05-17T13:17:40.562Z,22.60
2023-05-17T13:20:43.147Z,22.60
2023-05-17T13:23:47.606Z,21.90
2023-05-17T13:26:49.673Z,21.80
2023-05-17T13:29:52.117Z,21.40
2023-05-17T13:32:54.856Z,21.50
2023-05-17T13:35:57.440Z,21.70
2023-05-17T13:39:01.916Z,22.40
2023-05-17T13:42:04.518Z,22.40
2023-05-17T13:45:09.162Z,21.80
2023-05-17T13:48:12.005Z,21.60
2023-05-17T13:51:14.057Z,21.40
2023-05-17T13:54:16.686Z,21.00
2023-05-17T13:57:18.661Z,20.30
2023-05-17T14:00:21.866Z,21.40
2023-05-17T14:03:23.953Z,21.30
2023-05-17T14:06:26.399Z,20.70
2023-05-17T14:09:32.867Z,21.20
2023-05-17T14:12:35.554Z,20.50
2023-05-17T14:15:39.665Z,21.10
2023-05-17T14:18:42.026Z,21.60
2023-05-17T14:21:44.044Z,22.50
2023-05-17T14:24:46.285Z,22.10
2023-05-17T14:27:48.348Z,21.50
2023-05-17T14:30:50.604Z,21.10
2023-05-17T14:33:52.721Z,21.40
2023-05-17T14:36:55.035Z,21.00
2023-05-17T14:40:06.085Z,21.30
2023-05-17T14:43:09.179Z,22.50
2023-05-17T14:46:11.491Z,21.80
2023-05-17T14:49:13.924Z,22.60
2023-05-17T14:52:16.098Z,22.20
2023-05-17T14:55:18.766Z,22.50
2023-05-17T14:58:21.807Z,22.10
2023-05-17T15:01:25.808Z,21.90
2023-05-17T15:04:27.946Z,21.50
2023-05-17T15:07:30.669Z,21.90
2023-05-17T15:10:32.633Z,21.80
2023-05-17T15:13:34.896Z,22.30
2023-05-17T15:16:36.979Z,22.20
2023-05-17T15:19:39.769Z,22.00
2023-05-17T15:22:42.308Z,22.30
2023-05-17T15:25:44.655Z,21.90
2023-05-17T15:28:47.191Z,21.90
2023-05-17T15:31:49.523Z,22.30
2023-05-17T15:34:52.698Z,23.00
2023-05-17T15:37:57.290Z,22.90
2023-05-17T15:41:06.941Z,22.50
2023-05-17T15:44:09.360Z,22.70
2023-05-17T15:47:11.502Z,22.00
2023-05-17T15:50:13.978Z,21.60
2023-05-17T15:53:16.095Z,22.00
2023-05-17T15:56:21.054Z,21.90
2023-05-17T15:59:23.150Z,22.40
2023-05-17T16:02:25.900Z,22.40
2023-05-17T16:05:28.132Z,22.00
2023-05-17T16:08:31.518Z,21.90
2023-05-17T16:11:33.528Z,21.60
2023-05-17T16:14:36.016Z,21.40
2023-05-17T16:17:38.121Z,21.40
2023-05-17T16:20:41.709Z,21.50
2023-05-17T16:23:43.712Z,21.60
2023-05-17T16:26:46.110Z,21.80
2023-05-17T16:29:48.095Z,21.50
2023-05-17T16:32:50.626Z,21.70
2023-05-17T16:35:53.549Z,21.90
2023-05-17T16:38:55.887Z,21.80
2023-05-17T16:41:57.921Z,22.30
2023-05-17T16:45:00.240Z,22.50
2023-05-17T16:48:02.399Z,22.10
2023-05-17T16:51:04.914Z,21.90
2023-05-17T16:54:07.019Z,21.90
2023-05-17T16:57:09.398Z,22.30
2023-05-17T17:00:12.133Z,22.30
2023-05-17T17:03:14.421Z,22.00
2023-05-17T17:06:16.464Z,22.20
2023-05-17T17:09:19.134Z,22.20
2023-05-17T17:12:25.945Z,22.40
2023-05-17T17:15:28.842Z,22.00
2023-05-17T17:18:30.934Z,21.80
2023-05-17T17:21:36.427Z,22.00
2023-05-17T17:24:38.622Z,22.10
2023-05-17T17:27:41.087Z,22.80
2023-05-17T17:30:43.154Z,22.60
2023-05-17T17:33:45.570Z,23.00
2023-05-17T17:36:47.624Z,22.60
2023-05-17T17:39:50.140Z,22.70
2023-05-17T17:42:52.139Z,23.20
2023-05-17T17:45:54.434Z,22.60
2023-05-17T17:48:56.868Z,23.00
2023-05-17T17:51:59.345Z,23.30
2023-05-17T17:55:01.303Z,22.70
2023-05-17T17:58:03.787Z,23.10
2023-05-17T18:01:06.121Z,23.10
2023-05-17T18:04:09.486Z,23.00
2023-05-17T18:07:14.088Z,23.10
2023-05-17T18:10:16.413Z,22.80
2023-05-17T18:13:18.418Z,23.20
2023-05-17T18:16:20.777Z,24.10
2023-05-17T18:19:22.872Z,23.90
2023-05-17T18:22:25.297Z,24.00
2023-05-17T18:25:27.263Z,24.00
2023-05-17T18:28:41.386Z,23.60
2023-05-17T18:31:44.766Z,23.50
2023-05-17T18:34:47.350Z,23.80
2023-05-17T18:37:49.276Z,23.70
2023-05-17T18:40:51.681Z,23.70
2023-05-17T18:43:55.777Z,24.30
2023-05-17T18:46:58.177Z,24.80
2023-05-17T18:50:00.361Z,24.50
2023-05-17T18:53:02.712Z,24.30
2023-05-17T18:56:04.963Z,24.20
2023-05-17T18:59:07.411Z,24.20
2023-05-17T19:02:09.576Z,24.60
2023-05-17T19:05:11.984Z,24.70
2023-05-17T19:08:13.928Z,25.10
2023-05-17T19:11:17.061Z,26.20
2023-05-17T19:14:19.544Z,25.30
2023-05-17T19:17:22.091Z,25.20
2023-05-17T19:20:24.525Z,25.40
2023-05-17T19:23:28.137Z,25.20
2023-05-17T19:26:32.746Z,25.40
2023-05-17T19:29:35.365Z,26.10
2023-05-17T19:32:39.203Z,26.10
2023-05-17T19:35:41.561Z,26.20
2023-05-17T19:38:44.622Z,26.10
2023-05-17T19:41:46.952Z,25.90
2023-05-17T19:44:49.115Z,25.70
2023-05-17T19:47:53.371Z,25.90
2023-05-17T19:50:56.899Z,24.80
2023-05-17T19:53:59.554Z,25.50
2023-05-17T19:57:02.269Z,25.20
2023-05-17T20:00:07.166Z,24.90
2023-05-17T20:03:09.294Z,24.40
2023-05-17T20:06:14.354Z,24.40
2023-05-17T20:09:16.697Z,24.50
2023-05-17T20:12:19.196Z,25.00
2023-05-17T20:15:22.740Z,25.20
2023-05-17T20:18:27.649Z,25.70
2023-05-17T20:21:29.949Z,25.20
2023-05-17T20:24:34.804Z,25.50
2023-05-17T20:27:36.892Z,25.60
2023-05-17T20:30:44.363Z,25.60
2023-05-17T20:33:46.385Z,25.80
2023-05-17T20:36:48.689Z,25.20
2023-05-17T20:39:51.300Z,25.40
2023-05-17T20:42:53.630Z,25.50
2023-05-17T20:45:55.841Z,26.10
2023-05-17T20:48:59.236Z,25.80
2023-05-17T20:52:03.273Z,26.80
2023-05-17T20:55:07.934Z,26.80
2023-05-17T20:58:10.785Z,27.00
2023-05-17T21:01:13.833Z,26.90
2023-05-17T21:04:17.418Z,26.70
2023-05-17T21:07:20.223Z,27.00
2023-05-17T21:10:23.695Z,27.80
2023-05-17T21:13:26.649Z,27.00
2023-05-17T21:16:29.968Z,27.00
2023-05-17T21:19:32.530Z,27.40
2023-05-17T21:22:34.539Z,27.50
2023-05-17T21:25:37.837Z,27.50
2023-05-17T21:28:39.962Z,27.40
2023-05-17T21:31:42.314Z,27.50
2023-05-17T21:34:44.974Z,27.40
2023-05-17T21:37:47.896Z,28.10
2023-05-17T21:40:49.896Z,27.90
2023-05-17T21:43:52.540Z,28.30
2023-05-17T21:46:55.767Z,28.20
2023-05-17T21:49:59.282Z,27.70
2023-05-17T21:53:01.301Z,27.10
2023-05-17T21:56:03.669Z,26.70
2023-05-17T21:59:06.807Z,26.40
2023-05-17T22:02:09.174Z,26.40
2023-05-17T22:05:11.899Z,26.40
2023-05-17T22:08:14.177Z,26.40
2023-05-17T22:11:18.173Z,26.20
2023-05-17T22:14:20.688Z,25.90
2023-05-17T22:17:35.077Z,26.00
2023-05-17T22:20:41.689Z,25.50
2023-05-17T22:23:43.750Z,25.50
2023-05-17T22:26:46.230Z,26.20
2023-05-17T22:30:07.644Z,26.60
2023-05-17T22:33:10.732Z,26.00
2023-05-17T22:36:17.902Z,26.20
2023-05-17T22:39:20.106Z,26.20
2023-05-17T22:42:22.814Z,26.10
2023-05-17T22:45:26.014Z,26.10
2023-05-17T22:48:32.111Z,25.60
2023-05-17T22:51:35.334Z,25.20
2023-05-17T22:54:38.324Z,25.10
2023-05-17T22:57:40.946Z,24.80
2023-05-17T23:00:43.019Z,24.90
2023-05-17T23:03:45.290Z,24.80
2023-05-17T23:06:47.628Z,24.80
2023-05-17T23:09:49.977Z,24.50
2023-05-17T23:12:52.694Z,24.50
2023-05-17T23:15:55.589Z,24.30
2023-05-17T23:18:58.230Z,24.40
2023-05-17T23:22:06.066Z,24.20
2023-05-17T23:25:08.526Z,24.10
2023-05-17T23:28:10.774Z,24.40
2023-05-17T23:31:13.652Z,24.10
2023-05-17T23:34:16.409Z,24.10
2023-05-17T23:37:18.450Z,24.10
2023-05-17T23:40:21.093Z,24.60
2023-05-17T23:43:23.097Z,23.90
2023-05-17T23:46:25.730Z,24.10
2023-05-17T23:49:27.740Z,24.80
2023-05-17T23:52:32.602Z,24.40
2023-05-17T23:55:34.801Z,23.90
2023-05-17T23:58:37.084Z,23.80
